createdAt,value
2022-11-06T00:01:13.736Z,100566.46
2022-11-06T00:03:41.555Z,100565.45
2022-11-06T00:06:33.736Z,100567.05
2022-11-06T00:09:05.493Z,100565.17
2022-11-06T00:11:32.361Z,100564.88
2022-11-06T00:14:01.433Z,100567.66
2022-11-06T00:16:28.677Z,100567.49
2022-11-06T00:18:55.736Z,100570.61
2022-11-06T00:21:26.310Z,100573.40
2022-11-06T00:23:55.354Z,100572.90
2022-11-06T00:26:24.909Z,100575.70
2022-11-06T00:28:52.827Z,100573.27
2022-11-06T00:31:29.091Z,100570.72
2022-11-06T00:33:57.631Z,100572.83
2022-11-06T00:36:26.412Z,100572.29
2022-11-06T00:38:54.986Z,100572.46
2022-11-06T00:41:22.911Z,100570.04
2022-11-06T00:43:55.386Z,100565.23
2022-11-06T00:46:22.329Z,100567.69
2022-11-06T00:48:49.584Z,100562.19
2022-11-06T00:51:20.328Z,100554.98
2022-11-06T00:53:47.861Z,100554.83
2022-11-06T00:56:17.994Z,100558.48
2022-11-06T00:58:46.224Z,100561.05
2022-11-06T01:01:19.119Z,100561.02
2022-11-06T01:03:51.219Z,100560.48
2022-11-06T01:06:20.824Z,100558.60
2022-11-06T01:08:49.101Z,100558.27
2022-11-06T01:11:19.526Z,100559.67
2022-11-06T01:13:49.546Z,100564.35
2022-11-06T01:16:17.411Z,100563.65
2022-11-06T01:18:45.125Z,100561.27
2022-11-06T01:21:22.514Z,100559.73
2022-11-06T01:24:14.834Z,100557.01
2022-11-06T01:26:58.534Z,100557.56
2022-11-06T01:29:29.380Z,100551.36
2022-11-06T01:31:56.251Z,100549.82
2022-11-06T01:34:23.473Z,100552.40
2022-11-06T01:36:51.484Z,100553.96
2022-11-06T01:39:19.201Z,100552.23
2022-11-06T01:41:49.348Z,100552.59
2022-11-06T01:44:34.799Z,100553.80
2022-11-06T01:47:04.266Z,100562.08
2022-11-06T01:49:37.402Z,100562.77
2022-11-06T01:52:08.479Z,100561.29
2022-11-06T01:54:39.318Z,100559.92
2022-11-06T01:57:07.273Z,100563.55
2022-11-06T01:59:39.533Z,100563.05
2022-11-06T02:02:06.965Z,100563.05
2022-11-06T02:04:40.904Z,100563.23
2022-11-06T02:07:09.148Z,100561.35
2022-11-06T02:09:36.401Z,100560.66
2022-11-06T02:12:25.874Z,100565.52
2022-11-06T02:15:23.634Z,100568.96
2022-11-06T02:18:03.392Z,100569.31
2022-11-06T02:20:35.040Z,100564.34
2022-11-06T02:23:30.144Z,100561.42
2022-11-06T02:26:23.690Z,100564.56
2022-11-06T02:28:59.976Z,100556.65
2022-11-06T02:31:33.987Z,100557.05
2022-11-06T02:34:07.754Z,100558.61
2022-11-06T02:36:39.815Z,100553.77
2022-11-06T02:39:12.401Z,100549.09
2022-11-06T02:41:44.155Z,100552.55
2022-11-06T02:44:17.075Z,100550.83
2022-11-06T02:46:50.807Z,100549.45
2022-11-06T02:49:36.283Z,100548.75
2022-11-06T02:52:31.960Z,100545.79
2022-11-06T02:55:09.296Z,100546.48
2022-11-06T02:57:41.601Z,100547.66
2022-11-06T03:00:14.697Z,100549.91
2022-11-06T03:02:57.608Z,100547.86
2022-11-06T03:05:28.919Z,100540.84
2022-11-06T03:08:25.528Z,100540.48
2022-11-06T03:11:04.252Z,100537.92
2022-11-06T03:13:54.280Z,100536.76
2022-11-06T03:16:44.938Z,100531.39
2022-11-06T03:19:27.424Z,100534.48
2022-11-06T03:22:00.124Z,100534.79
2022-11-06T03:24:34.187Z,100534.95
2022-11-06T03:27:09.489Z,100533.27
2022-11-06T03:29:45.280Z,100534.66
2022-11-06T03:32:18.419Z,100529.77
2022-11-06T03:34:54.108Z,100531.92
2022-11-06T03:37:30.147Z,100536.10
2022-11-06T03:40:01.930Z,100535.13
2022-11-06T03:42:32.002Z,100528.09
2022-11-06T03:45:09.289Z,100533.79
2022-11-06T03:48:00.195Z,100544.48
2022-11-06T03:50:33.844Z,100543.43
2022-11-06T03:53:44.989Z,100546.58
2022-11-06T03:56:18.170Z,100549.75
2022-11-06T03:58:47.966Z,100553.35
2022-11-06T04:01:21.615Z,100554.41
2022-11-06T04:03:55.093Z,100556.52
2022-11-06T04:06:29.397Z,100553.65
2022-11-06T04:09:19.384Z,100554.87
2022-11-06T04:12:07.218Z,100553.14
2022-11-06T04:14:38.262Z,100550.25
2022-11-06T04:17:09.742Z,100550.27
2022-11-06T04:19:36.655Z,100545.64
2022-11-06T04:22:24.704Z,100543.95
2022-11-06T04:25:38.536Z,100545.17
2022-11-06T04:28:32.206Z,100540.67
2022-11-06T04:31:08.778Z,100536.02
2022-11-06T04:33:53.848Z,100534.80
2022-11-06T04:36:26.616Z,100539.08
2022-11-06T04:39:15.700Z,100538.40
2022-11-06T04:42:08.888Z,100538.56
2022-11-06T04:44:40.589Z,100540.61
2022-11-06T04:47:12.182Z,100539.43
2022-11-06T04:49:42.076Z,100538.77
2022-11-06T04:52:19.466Z,100539.65
2022-11-06T04:54:46.686Z,100536.95
2022-11-06T04:57:13.764Z,100533.02
2022-11-06T04:59:40.913Z,100527.66
2022-11-06T05:02:08.004Z,100530.75
2022-11-06T05:04:35.351Z,100527.79
2022-11-06T05:07:02.466Z,100532.95
2022-11-06T22:07:22.585Z,100305.05
2022-11-06T22:09:52.089Z,100304.58
2022-11-06T22:12:20.215Z,100302.80
2022-11-06T22:14:48.873Z,100304.29
2022-11-06T22:17:17.530Z,100305.41
2022-11-06T22:19:48.124Z,100303.45
2022-11-06T22:22:17.480Z,100311.02
2022-11-06T22:24:48.240Z,100306.90
2022-11-06T22:27:17.085Z,100298.01
2022-11-06T22:29:46.499Z,100293.42
2022-11-06T22:32:15.368Z,100288.97
2022-11-06T22:34:43.555Z,100282.37
2022-11-06T22:37:12.545Z,100282.61
2022-11-06T22:39:41.235Z,100281.08
2022-11-06T22:42:09.694Z,100282.84
2022-11-06T22:44:38.303Z,100276.91
2022-11-06T22:47:06.912Z,100274.78
2022-11-06T22:49:35.318Z,100275.18
2022-11-06T22:52:03.867Z,100269.90
2022-11-06T22:54:32.421Z,100269.92
2022-11-06T22:57:01.004Z,100269.09
2022-11-06T22:59:29.690Z,100271.20
2022-11-06T23:01:58.128Z,100264.48
2022-11-06T23:04:26.550Z,100263.82
2022-11-06T23:06:55.440Z,100266.26
2022-11-06T23:09:24.080Z,100268.98
2022-11-06T23:11:52.708Z,100266.92
2022-11-06T23:14:21.422Z,100263.14
2022-11-06T23:17:01.131Z,100260.88
2022-11-06T23:19:31.987Z,100261.58
2022-11-06T23:22:19.238Z,100267.62
2022-11-06T23:24:47.982Z,100269.86
2022-11-06T23:27:16.671Z,100264.69
2022-11-06T23:29:44.959Z,100266.43
2022-11-06T23:32:13.735Z,100269.70
2022-11-06T23:34:42.026Z,100267.96
2022-11-06T23:37:10.292Z,100263.83
2022-11-06T23:39:39.479Z,100260.38
2022-11-06T23:42:07.858Z,100257.83
2022-11-06T23:44:55.081Z,100254.59
2022-11-06T23:47:23.868Z,100256.70
2022-11-06T23:49:52.141Z,100260.23
2022-11-06T23:52:21.032Z,100266.48
2022-11-06T23:54:49.410Z,100262.70
2022-11-06T23:57:17.898Z,100260.77
2022-11-06T23:59:47.398Z,100260.73
